createdAt,value
2022-10-23T00:02:10.985Z,9.6
2022-10-23T00:12:12.904Z,9.4
2022-10-23T00:22:14.675Z,9.3
2022-10-23T00:32:16.454Z,9.2
2022-10-23T00:42:18.404Z,9
2022-10-23T00:52:20.756Z,8.8
2022-10-23T01:02:22.773Z,8.7
2022-10-23T01:12:24.814Z,8.8
2022-10-23T01:22:27.330Z,8.9
2022-10-23T01:32:29.638Z,8.7
2022-10-23T01:42:31.750Z,8.6
2022-10-23T01:52:34.187Z,8.5
2022-10-23T02:02:36.263Z,8.5
2022-10-23T02:12:37.952Z,8.7
2022-10-23T02:32:42.719Z,8.9
2022-10-23T02:42:44.457Z,8.7
2022-10-23T03:02:49.022Z,8.5
2022-10-23T03:12:50.926Z,8.4
2022-10-23T03:22:52.772Z,8.4
2022-10-23T03:32:55.089Z,8.5
2022-10-23T03:42:57.162Z,8.6
2022-10-23T03:52:58.957Z,8.7
2022-10-23T04:03:01.046Z,8.7
2022-10-23T04:13:02.998Z,8.6
2022-10-23T04:23:05.364Z,8.9
2022-10-23T04:33:07.527Z,8.9
2022-10-23T04:53:12.039Z,8.9
2022-10-23T05:03:14.282Z,9.1
2022-10-23T05:13:16.376Z,9.4
2022-10-23T05:23:18.690Z,9.5
2022-10-23T05:33:20.962Z,9.5
2022-10-23T05:43:22.996Z,9.4
2022-10-23T05:53:25.036Z,9.9
2022-10-23T06:03:26.694Z,9.9
2022-10-23T06:23:30.404Z,10.3
2022-10-23T06:33:32.588Z,10.4
2022-10-23T06:43:34.959Z,10.4
2022-10-23T06:53:37.420Z,10.4
2022-10-23T07:03:39.989Z,10.5
2022-10-23T07:13:42.591Z,10.5
2022-10-23T07:23:44.824Z,11
2022-10-23T07:33:46.875Z,11.2
2022-10-23T07:43:49.115Z,11.4
2022-10-23T07:53:51.683Z,11.5
2022-10-23T08:03:53.814Z,11.7
2022-10-23T08:13:56.277Z,11.9
2022-10-23T08:23:58.326Z,12.1
2022-10-23T08:34:00.349Z,12.3
2022-10-23T08:44:02.888Z,12.6
2022-10-23T08:54:04.882Z,13.1
2022-10-23T09:04:07.289Z,13.5
2022-10-23T09:14:09.055Z,14.1
2022-10-23T09:24:10.703Z,14.5
2022-10-23T09:34:13.300Z,14.9
2022-10-23T09:54:17.704Z,15.2
2022-10-23T10:04:19.554Z,15.4
2022-10-23T10:14:21.308Z,15.7
2022-10-23T10:24:23.532Z,15.9
2022-10-23T10:34:25.209Z,16.2
2022-10-23T11:04:32.248Z,16.3
2022-10-23T11:14:34.044Z,16.4
2022-10-23T11:24:35.888Z,16.6
2022-10-23T11:34:38.525Z,16.6
2022-10-23T11:54:42.919Z,17.2
2022-10-23T12:04:45.173Z,17.4
2022-10-23T12:14:47.443Z,17.6
2022-10-23T12:24:49.477Z,17.8
2022-10-23T12:34:52.020Z,17.8
2022-10-23T12:44:53.880Z,18.2
2022-10-23T12:54:56.473Z,18.7
2022-10-23T13:04:58.987Z,19
2022-10-23T13:15:01.406Z,19.3
2022-10-23T13:25:03.672Z,19.3
2022-10-23T13:35:20.693Z,19.4
2022-10-23T13:45:08.001Z,19.5
2022-10-23T13:55:09.763Z,19.7
2022-10-23T14:15:14.041Z,19.6
2022-10-23T14:35:18.379Z,19.6
2022-10-23T14:45:20.852Z,19.3
2022-10-23T14:55:23.190Z,19.2
2022-10-23T15:05:24.935Z,19.1
2022-10-23T15:25:29.585Z,18.6
2022-10-23T15:35:31.575Z,18.1
2022-10-23T15:45:33.610Z,17.6
2022-10-23T15:55:35.361Z,17.7
2022-10-23T16:05:37.916Z,17.5
2022-10-23T16:55:48.997Z,16.5
2022-10-23T17:05:51.447Z,16.7
2022-10-23T17:16:01.493Z,16.4
2022-10-23T17:46:07.543Z,15.8
2022-10-23T18:06:12.250Z,15.8
2022-10-23T18:36:18.938Z,15.7
2022-10-23T18:46:21.391Z,15.7
2022-10-23T18:56:23.234Z,15.6
2022-10-23T19:06:24.909Z,15.5
2022-10-23T19:16:26.591Z,15.6
2022-10-23T19:26:28.587Z,15.4
2022-10-23T19:36:30.972Z,15.4
2022-10-23T19:46:32.871Z,15.3
2022-10-23T19:56:34.745Z,15.3
2022-10-23T20:06:37.007Z,15.4
2022-10-23T20:16:38.713Z,15.5
2022-10-23T20:26:40.504Z,15.5
2022-10-23T20:36:43.834Z,15.8
2022-10-23T20:46:44.536Z,16.1
2022-10-23T20:56:47.092Z,16.2
2022-10-23T21:07:04.681Z,16
2022-10-23T21:16:51.875Z,16.4
2022-10-23T21:26:54.422Z,16.2
2022-10-23T21:37:12.776Z,16
2022-10-23T21:46:58.255Z,15.7
2022-10-23T21:57:00.412Z,15.5
2022-10-23T22:07:02.868Z,15.4
2022-10-23T22:17:05.345Z,15.2
2022-10-23T22:27:07.357Z,15.2
2022-10-23T22:37:09.032Z,15.4
2022-10-23T22:47:11.301Z,15.5
2022-10-23T22:57:13.430Z,15.5
2022-10-23T23:07:15.531Z,15.5
2022-10-23T23:17:18.130Z,15.6
2022-10-23T23:37:22.451Z,15.6
2022-10-23T23:57:26.812Z,15.7
